Latest Weather Observations for Young

IDN60801

Issued at 7:02 pm EDT Tuesday 6 December 2016 (issued every 30 minutes, with the page automatically refreshed every 10 minutes)

About weather observations | Map of weather stations | Latest weather observations for NSW | Other Formats
Station Details ID: 073138 Name: YOUNG AIRPORT Lat: -34.25 Lon: 148.25 Height: 379.6 m
Data from the previous 72 hours. | See also: Recent months at Young
Date/Time
EDT
Temp
°C
App
Temp
°C
Dew
Point
°C
Rel
Hum
%
Delta-T
°C
Wind Press
QNH
hPa
Press
MSL
hPa
Rain since
9am
mm
Dir  Spd
km/h
Gust
km/h
Spd
kts
Gust
kts
06/07:00pm 18.6 16.9 8.3 51 5.4 WSW 7 11 4 6 1013.7 1012.2 1.0
06/06:30pm 19.8 18.4 9.4 51 5.6 W 7 11 4 6 1013.0 1011.5 0.8
06/06:00pm 21.6 19.9 8.5 43 7.0 WNW 7 13 4 7 1012.9 1011.4 0.8
06/05:30pm 22.0 20.1 8.9 43 7.1 W 9 15 5 8 1012.4 1010.9 0.8
06/05:00pm 22.4 20.9 10.5 47 6.7 W 9 15 5 8 1012.3 1010.8 0.8
06/04:30pm 22.3 20.1 10.8 48 6.5 WNW 13 20 7 11 1012.6 1011.1 0.8
06/04:00pm 21.9 20.2 11.3 51 6.0 WNW 11 19 6 10 1012.9 1011.4 0.8
06/03:30pm 21.8 20.1 12.6 56 5.3 W 13 20 7 11 1013.0 1011.5 0.8
06/03:00pm 21.4 20.7 13.3 60 4.7 WNW 9 15 5 8 1013.2 1011.7 0.8
06/02:30pm 21.4 19.9 13.1 59 4.8 WSW 13 19 7 10 1013.4 1011.9 0.8
06/02:00pm 21.5 20.7 13.9 62 4.5 WSW 11 20 6 11 1013.5 1012.0 0.8
06/01:30pm 21.7 21.4 17.3 76 2.7 WSW 15 26 8 14 1013.7 1012.2 0.8
06/01:00pm 21.9 22.0 18.3 80 2.3 W 15 22 8 12 1013.8 1012.3 0.8
06/12:30pm 21.8 22.4 18.6 82 2.0 W 13 20 7 11 1013.6 1012.1 0.8
06/12:00pm 21.5 23.3 18.7 84 1.8 W 7 13 4 7 1013.5 1012.0 0.8
06/11:30am 21.0 23.5 19.1 89 1.2 W 4 9 2 5 1013.6 1012.1 0.8
06/11:00am 20.9 22.4 18.8 88 1.3 WNW 9 13 5 7 1013.7 1012.2 0.2
06/10:30am 21.3 21.1 17.7 80 2.3 WSW 15 26 8 14 1013.8 1012.3 0.0
06/10:00am 22.9 22.9 18.0 74 3.1 W 15 30 8 16 1013.1 1011.6 0.0
06/09:30am 22.0 23.9 19.0 83 1.9 SW 7 13 4 7 1013.1 1011.6 0.0
06/09:00am 21.1 22.6 18.9 87 1.4 SSW 9 13 5 7 1013.0 1011.5 1.0
06/08:30am 20.6 21.6 18.7 89 1.2 S 11 13 6 7 1012.7 1011.2 1.0
06/08:00am 19.8 20.6 18.1 90 1.1 S 11 13 6 7 1012.2 1010.7 1.0
06/07:30am 19.2 19.9 18.0 93 0.8 SE 11 19 6 10 1011.8 1010.4 1.0
06/07:00am 18.6 18.7 17.4 93 0.7 SE 13 17 7 9 1012.2 1010.7 1.0
06/06:30am 18.7 18.0 17.4 92 0.8 SW 17 22 9 12 1012.5 1011.0 0.8
06/06:00am 19.3 19.7 17.3 88 1.2 S 11 13 6 7 1011.7 1010.3 0.4
06/05:30am 19.4 19.8 17.2 87 1.4 S 11 15 6 8 1011.1 1009.6 0.4
06/05:00am 19.7 19.7 17.1 85 1.6 SSE 13 17 7 9 1010.6 1009.1 0.4
06/04:30am 20.0 20.5 17.4 85 1.6 SSE 11 17 6 9 1010.7 1009.2 0.4
06/04:00am 20.4 20.5 17.4 83 1.9 SSE 13 17 7 9 1009.8 1008.3 0.4
06/03:30am 20.7 20.8 17.5 82 2.0 S 13 17 7 9 1010.4 1008.9 0.4
06/03:00am 20.9 21.7 17.3 80 2.2 SSW 9 13 5 7 1010.6 1009.1 0.4
06/02:30am 21.0 21.0 17.2 79 2.4 S 13 20 7 11 1010.6 1009.1 0.4
06/02:00am 21.3 21.4 17.5 79 2.4 S 13 20 7 11 1011.0 1009.5 0.4
06/01:30am 21.8 22.2 18.2 80 2.3 S 13 20 7 11 1011.4 1009.9 0.4
06/01:00am 21.6 23.3 18.4 82 2.0 S 7 9 4 5 1011.7 1010.3 0.4
06/12:30am 22.5 23.3 17.2 72 3.3 WSW 9 15 5 8 1012.3 1010.8 0.0
06/12:00am 22.5 24.9 17.0 71 3.4 CALM 0 0 0 0 1012.1 1010.6 0.0
 
Date/Time
EDT
Temp
°C
App
Temp
°C
Dew
Point
°C
Rel
Hum
%
Delta-T
°C
Wind Press
QNH
hPa
Press
MSL
hPa
Rain since
9am
mm
Dir  Spd
km/h
Gust
km/h
Spd
kts
Gust
kts
05/11:30pm 22.8 24.6 15.6 64 4.4 CALM 0 0 0 0 1011.7 1010.3 0.0
05/11:00pm 23.6 25.6 16.1 62 4.6 CALM 0 0 0 0 1011.6 1010.2 0.0
05/10:30pm 24.4 24.9 15.1 56 5.7 N 6 7 3 4 1011.6 1010.2 0.0
05/10:00pm 25.6 25.8 14.7 51 6.6 NNW 7 11 4 6 1011.6 1010.2 0.0
05/09:30pm 26.4 26.0 14.2 47 7.4 NNW 9 11 5 6 1011.4 1009.9 0.0
05/09:00pm 27.1 26.3 14.1 44 7.9 NW 11 17 6 9 1011.1 1009.6 0.0
05/08:30pm 27.6 26.4 13.9 43 8.3 NW 13 20 7 11 1010.9 1009.4 0.0
05/08:00pm 28.0 26.8 13.9 42 8.6 NW 13 19 7 10 1010.5 1009.0 0.0
05/07:30pm 28.5 26.8 13.6 40 9.0 NW 15 24 8 13 1010.0 1008.5 0.0
05/07:00pm 30.4 28.3 12.3 33 10.8 WNW 15 22 8 12 1009.6 1008.1 0.0
05/06:30pm 31.3 29.3 12.6 31 11.3 NW 15 20 8 11 1009.2 1007.6 0.0
05/06:00pm 31.6 30.1 11.9 30 11.8 WNW 11 22 6 12 1009.0 1007.5 0.0
05/05:30pm 31.8 29.6 12.1 30 11.8 WNW 15 20 8 11 1009.0 1007.5 0.0
05/05:00pm 33.8 32.6 12.7 27 12.9 W 11 17 6 9 1008.9 1007.4 0.0
05/04:30pm 33.2 31.0 12.2 28 12.7 WNW 15 26 8 14 1009.2 1007.6 0.0
05/04:00pm 32.5 30.5 12.7 30 12.0 W 15 22 8 12 1009.4 1007.9 0.0
05/03:30pm 32.6 31.2 13.3 31 11.8 W 13 20 7 11 1009.6 1008.1 0.0
05/03:00pm 31.7 30.0 12.5 31 11.6 WNW 13 28 7 15 1009.9 1008.4 0.0
05/02:30pm 31.9 29.5 12.7 31 11.6 WNW 17 32 9 17 1010.0 1008.5 0.0
05/02:00pm 31.4 30.2 12.7 32 11.3 W 11 17 6 9 1010.2 1008.7 0.0
05/01:30pm 31.3 29.4 13.1 33 11.0 WSW 15 22 8 12 1010.3 1008.8 0.0
05/01:00pm 32.1 29.9 13.3 31 11.5 WSW 17 20 9 11 1010.2 1008.7 0.0
05/12:30pm 31.6 29.3 12.9 32 11.3 SW 17 24 9 13 1010.1 1008.6 0.0
05/12:00pm 30.8 29.0 12.2 32 11.1 W 13 20 7 11 1010.3 1008.8 0.0
05/11:30am 31.7 29.3 12.5 31 11.6 WSW 17 24 9 13 1010.0 1008.5 0.0
05/11:00am 31.8 29.4 12.6 31 11.6 WSW 17 30 9 16 1010.1 1008.6 0.0
05/10:30am 31.0 29.7 13.7 34 10.6 WNW 13 20 7 11 1010.0 1008.5 0.0
05/10:00am 30.8 30.0 14.0 36 10.3 NW 11 15 6 8 1009.7 1008.2 0.0
05/09:30am 29.5 28.9 14.5 40 9.2 N 11 17 6 9 1010.1 1008.6 0.0
05/09:00am 28.6 29.3 15.5 45 8.2 N 6 11 3 6 1010.2 1008.7 0.0
05/08:30am 26.3 27.0 16.0 53 6.4 SSW 7 9 4 5 1010.1 1008.6 0.0
05/08:00am 24.3 26.4 17.3 65 4.4 SE 2 6 1 3 1010.2 1008.7 0.0
05/07:30am 23.6 25.3 17.1 67 4.1 SSE 4 9 2 5 1009.9 1008.4 0.0
05/07:00am 22.5 24.1 16.8 70 3.5 SW 4 6 2 3 1009.6 1008.1 0.0
05/06:30am 19.6 21.6 15.9 79 2.2 CALM 0 0 0 0 1009.2 1007.6 0.0
05/06:00am 19.3 21.1 15.6 79 2.2 CALM 0 0 0 0 1008.8 1007.3 0.0
05/05:30am 19.9 20.2 14.9 73 3.0 SSW 7 11 4 6 1008.6 1007.1 0.0
05/05:00am 21.1 20.8 15.4 70 3.5 SSW 11 15 6 8 1008.6 1007.1 0.0
05/04:30am 21.7 22.4 15.5 68 3.8 SSW 6 7 3 4 1008.7 1007.2 0.0
05/04:00am 22.4 23.0 15.3 64 4.3 ENE 6 7 3 4 1009.0 1007.5 0.0
05/03:30am 22.9 23.1 14.7 60 4.9 NNE 7 7 4 4 1010.0 1008.5 0.0
05/03:00am 23.9 23.8 14.0 54 5.9 WSW 7 11 4 6 1009.9 1008.4 0.0
05/02:30am 21.7 22.5 14.8 65 4.1 WSW 4 7 2 4 1009.5 1008.0 0.0
05/02:00am 21.6 23.1 14.7 65 4.1 CALM 0 4 0 2 1009.0 1007.5 0.0
05/01:30am 21.9 22.2 14.5 63 4.4 SSW 6 11 3 6 1008.7 1007.2 0.0
05/01:00am 22.3 22.1 13.6 58 5.1 WSW 7 9 4 5 1008.8 1007.3 0.0
05/12:30am 21.9 22.3 13.8 60 4.8 SW 4 7 2 4 1008.9 1007.4 0.0
05/12:00am 22.8 22.8 13.6 56 5.4 SSW 6 7 3 4 1009.0 1007.5 0.0
 
Date/Time
EDT
Temp
°C
App
Temp
°C
Dew
Point
°C
Rel
Hum
%
Delta-T
°C
Wind Press
QNH
hPa
Press
MSL
hPa
Rain since
9am
mm
Dir  Spd
km/h
Gust
km/h
Spd
kts
Gust
kts
04/11:30pm 24.3 23.4 12.6 48 6.8 SE 9 13 5 7 1009.0 1007.5 0.0
04/11:00pm 23.3 22.6 12.0 49 6.5 SW 7 9 4 5 1009.0 1007.5 0.0
04/10:30pm 23.7 22.6 12.0 48 6.8 SW 9 13 5 7 1009.2 1007.6 0.0
04/10:00pm 24.3 22.9 12.3 47 7.0 S 11 13 6 7 1009.3 1007.8 0.0
04/09:30pm 24.0 22.9 12.0 47 6.9 S 9 11 5 6 1009.4 1007.9 0.0
04/09:00pm 26.2 24.6 11.5 40 8.5 SE 11 17 6 9 1009.4 1007.9 0.0
04/08:30pm 27.4 26.0 11.0 36 9.5 SE 9 13 5 7 1009.6 1008.1 0.0
04/08:00pm 27.8 26.2 11.4 36 9.6 E 11 15 6 8 1009.3 1007.8 0.0
04/07:30pm 28.0 27.0 12.4 38 9.2 SE 9 13 5 7 1010.4 1008.9 0.0
04/07:00pm 29.3 27.4 11.8 34 10.3 S 13 15 7 8 1010.7 1009.2 0.0
04/06:30pm 30.4 28.4 11.4 31 11.2 S 13 17 7 9 1010.5 1009.0 0.0
04/06:00pm 31.2 28.2 10.5 28 12.1 S 17 20 9 11 1010.4 1008.9 0.0
04/05:30pm 31.7 29.6 9.8 26 12.6 SSW 11 15 6 8 1010.5 1009.0 0.0
04/05:00pm 31.7 30.3 11.0 28 12.2 SSW 9 11 5 6 1010.6 1009.1 0.0
04/04:30pm 32.3 30.6 9.8 25 13.0 SSW 9 11 5 6 1010.8 1009.3 0.0
04/04:00pm 32.2 30.5 8.4 23 13.5 WSW 7 13 4 7 1011.0 1009.5 0.0
04/03:30pm 32.5 29.6 8.0 22 13.8 W 13 20 7 11 1011.4 1009.9 0.0
04/03:00pm 32.5 29.7 8.7 23 13.6 W 13 20 7 11 1011.8 1010.4 0.0
04/02:30pm 32.9 30.2 10.3 25 13.2 NW 15 22 8 12 1012.1 1010.6 0.0
04/02:00pm 33.7 31.4 10.3 24 13.7 W 13 20 7 11 1012.3 1010.8 0.0
04/01:30pm 33.8 30.7 10.4 24 13.8 NW 17 28 9 15 1012.8 1011.3 0.0
04/01:00pm 33.7 30.8 10.9 25 13.5 NNW 17 30 9 16 1013.0 1011.5 0.0
04/12:30pm 33.0 29.9 10.4 25 13.2 N 17 32 9 17 1013.3 1011.8 0.0
04/12:00pm 32.0 29.0 10.7 27 12.5 NNW 17 26 9 14 1013.4 1011.9 0.0
04/11:30am 31.9 30.0 11.7 29 12.0 N 13 19 7 10 1013.5 1012.0 0.0
04/11:00am 31.5 29.7 13.3 33 11.1 N 15 20 8 11 1013.9 1012.5 0.0
04/10:30am 30.1 28.4 12.5 34 10.5 N 13 20 7 11 1014.2 1012.8 0.0
04/10:00am 28.7 27.4 12.6 37 9.6 NE 11 17 6 9 1014.4 1013.0 0.0
04/09:30am 27.7 27.0 14.3 43 8.2 NNE 11 17 6 9 1014.7 1013.2 0.0
04/09:00am 26.1 25.8 13.2 44 7.7 ESE 7 11 4 6 1014.5 1013.1 0.0
04/08:30am 24.0 23.1 13.8 53 6.1 ESE 11 13 6 7 1014.8 1013.3 0.0
04/08:00am 20.6 20.5 13.8 65 4.0 S 7 9 4 5 1015.0 1013.5 0.0
04/07:30am 18.4 17.7 13.1 71 3.0 S 9 13 5 7 1015.1 1013.6 0.0
04/07:00am 16.8 15.6 12.9 78 2.2 SSW 11 15 6 8 1015.2 1013.7 0.0
04/06:30am 14.9 13.4 12.0 83 1.6 SSW 11 13 6 7 1014.7 1013.2 0.0
04/06:00am 13.0 11.2 9.3 78 1.9 S 9 13 5 7 1014.4 1013.0 0.0
04/05:30am 12.8 10.5 8.9 77 2.0 S 11 17 6 9 1013.9 1012.5 0.0
04/05:00am 12.2 10.7 8.5 78 1.9 S 6 11 3 6 1013.8 1012.3 0.0
04/04:30am 11.5 9.9 8.0 79 1.7 SSW 6 7 3 4 1013.6 1012.1 0.0
04/04:00am 11.3 9.5 7.8 79 1.7 SSW 7 9 4 5 1013.6 1012.1 0.0
04/03:30am 11.5 9.7 8.0 79 1.7 SSW 7 9 4 5 1013.5 1012.0 0.0
04/03:00am 11.8 9.7 8.3 79 1.8 S 9 9 5 5 1013.4 1011.9 0.0
04/02:30am 11.6 10.1 8.5 81 1.6 SSW 6 7 3 4 1013.4 1011.9 0.0
04/02:00am 12.4 11.2 8.1 75 2.2 S 4 7 2 4 1013.6 1012.1 0.0
04/01:30am 12.8 10.8 8.5 75 2.2 SSW 9 11 5 6 1013.7 1012.2 0.0
04/01:00am 13.5 11.6 9.2 75 2.2 S 9 11 5 6 1013.9 1012.5 0.0
04/12:30am 12.4 10.9 9.1 80 1.7 SSW 7 9 4 5 1014.0 1012.6 0.0
04/12:00am 13.1 11.7 9.0 76 2.1 SSW 6 7 3 4 1014.0 1012.6 0.0
 
Date/Time
EDT
Temp
°C
App
Temp
°C
Dew
Point
°C
Rel
Hum
%
Delta-T
°C
Wind Press
QNH
hPa
Press
MSL
hPa
Rain since
9am
mm
Dir  Spd
km/h
Gust
km/h
Spd
kts
Gust
kts
03/11:30pm 13.6 12.1 9.3 75 2.2 SSW 7 9 4 5 1014.0 1012.6 0.0
03/11:00pm 14.6 13.3 9.8 73 2.5 S 7 9 4 5 1014.1 1012.7 0.0
03/10:30pm 15.3 14.1 9.7 69 3.0 SSW 6 7 3 4 1014.1 1012.7 0.0
03/10:00pm 16.8 15.4 9.7 63 3.8 SW 7 9 4 5 1014.0 1012.6 0.0
03/09:30pm 18.1 16.7 9.7 58 4.5 S 7 9 4 5 1013.7 1012.2 0.0
03/09:00pm 20.2 18.9 9.2 49 5.9 SW 6 7 3 4 1013.3 1011.8 0.0
03/08:30pm 22.4 21.0 8.9 42 7.3 SSW 6 9 3 5 1013.0 1011.5 0.0
03/08:00pm 26.5 24.1 7.0 29 10.5 SSW 9 11 5 6 1012.8 1011.3 0.0
03/07:30pm 28.7 25.7 6.1 24 12.1 SSW 11 17 6 9 1012.5 1011.0 0.0

Other Formats:

Comma delimited format used in spreadsheet applications
http://www.bom.gov.au/fwo/IDN60801/IDN60801.94712.axf

JavaScript Object Notation format (JSON) in row-major order
http://www.bom.gov.au/fwo/IDN60801/IDN60801.94712.json